sensor_id;sensor_type;location;lat;lon;timestamp;P1;durP1;ratioP1;P2;durP2;ratioP2
4895;SDS011;2463;49.948;8.472;2023-03-01T00:01:06;102.85;;;10.32;;
4895;SDS011;2463;49.948;8.472;2023-03-01T00:03:34;106.72;;;11.68;;
4895;SDS011;2463;49.948;8.472;2023-03-01T00:06:02;104.47;;;11.68;;
4895;SDS011;2463;49.948;8.472;2023-03-01T00:08:29;104.25;;;10.50;;
4895;SDS011;2463;49.948;8.472;2023-03-01T00:11:06;101.82;;;11.13;;
4895;SDS011;2463;49.948;8.472;2023-03-01T00:13:36;108.78;;;11.30;;
4895;SDS011;2463;49.948;8.472;2023-03-01T00:16:03;102.35;;;9.90;;
4895;SDS011;2463;49.948;8.472;2023-03-01T00:18:38;104.20;;;10.50;;
4895;SDS011;2463;49.948;8.472;2023-03-01T00:21:05;110.00;;;10.55;;
4895;SDS011;2463;49.948;8.472;2023-03-01T00:23:33;105.38;;;10.95;;
4895;SDS011;2463;49.948;8.472;2023-03-01T00:26:01;103.53;;;10.32;;
4895;SDS011;2463;49.948;8.472;2023-03-01T00:28:28;103.93;;;11.05;;
4895;SDS011;2463;49.948;8.472;2023-03-01T00:30:54;107.15;;;11.57;;
4895;SDS011;2463;49.948;8.472;2023-03-01T00:33:21;100.78;;;10.60;;
4895;SDS011;2463;49.948;8.472;2023-03-01T00:35:48;102.25;;;10.80;;
4895;SDS011;2463;49.948;8.472;2023-03-01T00:38:14;101.07;;;9.98;;
4895;SDS011;2463;49.948;8.472;2023-03-01T00:40:41;102.20;;;10.80;;
4895;SDS011;2463;49.948;8.472;2023-03-01T00:43:08;104.85;;;11.35;;
4895;SDS011;2463;49.948;8.472;2023-03-01T00:45:35;103.15;;;10.73;;
4895;SDS011;2463;49.948;8.472;2023-03-01T00:48:01;103.38;;;10.73;;
4895;SDS011;2463;49.948;8.472;2023-03-01T00:50:28;104.35;;;10.63;;
4895;SDS011;2463;49.948;8.472;2023-03-01T00:52:55;106.95;;;11.95;;
4895;SDS011;2463;49.948;8.472;2023-03-01T00:55:22;101.90;;;10.55;;
4895;SDS011;2463;49.948;8.472;2023-03-01T00:57:49;102.68;;;9.63;;
4895;SDS011;2463;49.948;8.472;2023-03-01T01:00:17;100.55;;;10.80;;
4895;SDS011;2463;49.948;8.472;2023-03-01T01:02:45;105.28;;;10.45;;
4895;SDS011;2463;49.948;8.472;2023-03-01T01:05:12;102.72;;;10.95;;
4895;SDS011;2463;49.948;8.472;2023-03-01T01:07:39;101.20;;;10.65;;
4895;SDS011;2463;49.948;8.472;2023-03-01T01:10:05;105.45;;;11.13;;
4895;SDS011;2463;49.948;8.472;2023-03-01T01:12:33;102.22;;;10.75;;
4895;SDS011;2463;49.948;8.472;2023-03-01T01:15:00;105.30;;;11.23;;
4895;SDS011;2463;49.948;8.472;2023-03-01T01:17:26;101.93;;;10.23;;
4895;SDS011;2463;49.948;8.472;2023-03-01T01:19:53;103.40;;;10.43;;
4895;SDS011;2463;49.948;8.472;2023-03-01T01:22:19;104.70;;;11.95;;
4895;SDS011;2463;49.948;8.472;2023-03-01T01:24:46;107.03;;;10.85;;
4895;SDS011;2463;49.948;8.472;2023-03-01T01:27:13;102.32;;;10.90;;
4895;SDS011;2463;49.948;8.472;2023-03-01T01:29:39;103.35;;;11.23;;
4895;SDS011;2463;49.948;8.472;2023-03-01T01:32:08;102.32;;;10.65;;
4895;SDS011;2463;49.948;8.472;2023-03-01T01:34:34;102.68;;;10.68;;
4895;SDS011;2463;49.948;8.472;2023-03-01T01:37:01;107.07;;;11.77;;
4895;SDS011;2463;49.948;8.472;2023-03-01T01:39:29;103.80;;;11.38;;
4895;SDS011;2463;49.948;8.472;2023-03-01T01:41:55;104.38;;;11.05;;
4895;SDS011;2463;49.948;8.472;2023-03-01T01:44:26;102.85;;;11.10;;
4895;SDS011;2463;49.948;8.472;2023-03-01T01:52:04;104.70;;;11.70;;
4895;SDS011;2463;49.948;8.472;2023-03-01T01:54:53;104.15;;;11.65;;
4895;SDS011;2463;49.948;8.472;2023-03-01T01:57:33;105.88;;;11.57;;
4895;SDS011;2463;49.948;8.472;2023-03-01T02:00:07;104.40;;;11.77;;
4895;SDS011;2463;49.948;8.472;2023-03-01T02:02:38;103.60;;;10.73;;
4895;SDS011;2463;49.948;8.472;2023-03-01T02:05:09;101.65;;;9.93;;
4895;SDS011;2463;49.948;8.472;2023-03-01T02:07:40;101.10;;;10.35;;
4895;SDS011;2463;49.948;8.472;2023-03-01T02:10:08;104.78;;;11.60;;
4895;SDS011;2463;49.948;8.472;2023-03-01T02:12:35;102.63;;;11.55;;
4895;SDS011;2463;49.948;8.472;2023-03-01T02:15:03;105.50;;;11.23;;
4895;SDS011;2463;49.948;8.472;2023-03-01T02:17:30;105.50;;;11.23;;
4895;SDS011;2463;49.948;8.472;2023-03-01T02:20:03;102.30;;;11.35;;
4895;SDS011;2463;49.948;8.472;2023-03-01T02:22:34;103.80;;;10.60;;
4895;SDS011;2463;49.948;8.472;2023-03-01T02:28:05;105.60;;;11.40;;
4895;SDS011;2463;49.948;8.472;2023-03-01T02:30:36;105.28;;;12.25;;
4895;SDS011;2463;49.948;8.472;2023-03-01T02:33:24;100.85;;;10.30;;
4895;SDS011;2463;49.948;8.472;2023-03-01T02:35:53;102.50;;;10.80;;
4895;SDS011;2463;49.948;8.472;2023-03-01T02:38:21;106.57;;;12.40;;
4895;SDS011;2463;49.948;8.472;2023-03-01T02:40:49;102.22;;;11.35;;
4895;SDS011;2463;49.948;8.472;2023-03-01T02:43:17;101.43;;;10.45;;
4895;SDS011;2463;49.948;8.472;2023-03-01T02:45:50;105.88;;;11.02;;
4895;SDS011;2463;49.948;8.472;2023-03-01T02:48:19;101.88;;;10.63;;
4895;SDS011;2463;49.948;8.472;2023-03-01T02:50:51;104.40;;;11.90;;
4895;SDS011;2463;49.948;8.472;2023-03-01T02:56:15;104.90;;;11.52;;
4895;SDS011;2463;49.948;8.472;2023-03-01T02:58:42;106.28;;;11.10;;
4895;SDS011;2463;49.948;8.472;2023-03-01T03:01:19;104.68;;;12.05;;
4895;SDS011;2463;49.948;8.472;2023-03-01T03:03:46;103.18;;;11.00;;
4895;SDS011;2463;49.948;8.472;2023-03-01T03:06:13;110.30;;;11.93;;
4895;SDS011;2463;49.948;8.472;2023-03-01T03:08:40;106.68;;;11.25;;
4895;SDS011;2463;49.948;8.472;2023-03-01T03:11:07;105.93;;;12.10;;
4895;SDS011;2463;49.948;8.472;2023-03-01T03:13:33;104.90;;;11.45;;
4895;SDS011;2463;49.948;8.472;2023-03-01T03:16:00;103.30;;;10.88;;
4895;SDS011;2463;49.948;8.472;2023-03-01T03:18:28;109.93;;;12.13;;
4895;SDS011;2463;49.948;8.472;2023-03-01T03:20:55;105.45;;;11.50;;
4895;SDS011;2463;49.948;8.472;2023-03-01T03:23:22;104.53;;;11.23;;
4895;SDS011;2463;49.948;8.472;2023-03-01T03:25:49;106.63;;;11.60;;
4895;SDS011;2463;49.948;8.472;2023-03-01T03:28:16;106.05;;;12.30;;
4895;SDS011;2463;49.948;8.472;2023-03-01T03:30:44;106.60;;;12.32;;
4895;SDS011;2463;49.948;8.472;2023-03-01T03:33:11;104.18;;;11.50;;
4895;SDS011;2463;49.948;8.472;2023-03-01T03:35:43;103.55;;;11.15;;
4895;SDS011;2463;49.948;8.472;2023-03-01T03:38:13;101.80;;;11.05;;
4895;SDS011;2463;49.948;8.472;2023-03-01T03:40:44;104.30;;;11.38;;
4895;SDS011;2463;49.948;8.472;2023-03-01T03:43:19;102.82;;;10.60;;
4895;SDS011;2463;49.948;8.472;2023-03-01T03:45:48;110.95;;;11.13;;
4895;SDS011;2463;49.948;8.472;2023-03-01T03:48:17;106.68;;;12.05;;
4895;SDS011;2463;49.948;8.472;2023-03-01T03:50:49;109.28;;;13.05;;
4895;SDS011;2463;49.948;8.472;2023-03-01T03:53:17;105.70;;;11.35;;
4895;SDS011;2463;49.948;8.472;2023-03-01T03:55:45;111.05;;;12.50;;
4895;SDS011;2463;49.948;8.472;2023-03-01T03:58:15;106.18;;;11.75;;
4895;SDS011;2463;49.948;8.472;2023-03-01T04:00:46;105.20;;;11.90;;
4895;SDS011;2463;49.948;8.472;2023-03-01T04:03:16;103.70;;;11.05;;
4895;SDS011;2463;49.948;8.472;2023-03-01T04:05:45;106.05;;;11.57;;
4895;SDS011;2463;49.948;8.472;2023-03-01T04:08:13;104.80;;;11.80;;
4895;SDS011;2463;49.948;8.472;2023-03-01T04:10:41;100.82;;;10.75;;
4895;SDS011;2463;49.948;8.472;2023-03-01T04:13:11;105.70;;;11.40;;
4895;SDS011;2463;49.948;8.472;2023-03-01T04:15:39;107.13;;;13.25;;
4895;SDS011;2463;49.948;8.472;2023-03-01T04:18:06;106.53;;;11.95;;
4895;SDS011;2463;49.948;8.472;2023-03-01T04:20:34;105.80;;;12.20;;
4895;SDS011;2463;49.948;8.472;2023-03-01T04:23:10;104.80;;;11.55;;
4895;SDS011;2463;49.948;8.472;2023-03-01T04:25:44;108.20;;;12.90;;
4895;SDS011;2463;49.948;8.472;2023-03-01T04:28:23;108.68;;;12.00;;
4895;SDS011;2463;49.948;8.472;2023-03-01T04:30:55;104.10;;;12.38;;
4895;SDS011;2463;49.948;8.472;2023-03-01T04:33:24;106.63;;;11.95;;
4895;SDS011;2463;49.948;8.472;2023-03-01T04:35:51;107.75;;;13.07;;
4895;SDS011;2463;49.948;8.472;2023-03-01T04:38:18;103.82;;;11.90;;
4895;SDS011;2463;49.948;8.472;2023-03-01T04:40:47;112.10;;;13.27;;
4895;SDS011;2463;49.948;8.472;2023-03-01T04:43:14;109.00;;;12.50;;
4895;SDS011;2463;49.948;8.472;2023-03-01T04:45:41;108.65;;;12.23;;
4895;SDS011;2463;49.948;8.472;2023-03-01T04:48:07;103.13;;;12.02;;
4895;SDS011;2463;49.948;8.472;2023-03-01T04:50:35;107.05;;;13.38;;
4895;SDS011;2463;49.948;8.472;2023-03-01T04:53:01;107.05;;;11.93;;
4895;SDS011;2463;49.948;8.472;2023-03-01T04:55:29;109.00;;;13.05;;
4895;SDS011;2463;49.948;8.472;2023-03-01T04:57:56;104.13;;;12.32;;
4895;SDS011;2463;49.948;8.472;2023-03-01T05:00:22;110.00;;;14.30;;
4895;SDS011;2463;49.948;8.472;2023-03-01T05:05:42;106.90;;;12.07;;
4895;SDS011;2463;49.948;8.472;2023-03-01T05:08:10;104.03;;;12.27;;
4895;SDS011;2463;49.948;8.472;2023-03-01T05:10:47;106.25;;;12.88;;
4895;SDS011;2463;49.948;8.472;2023-03-01T05:13:15;111.68;;;12.38;;
4895;SDS011;2463;49.948;8.472;2023-03-01T05:15:53;105.70;;;11.98;;
4895;SDS011;2463;49.948;8.472;2023-03-01T05:18:20;109.68;;;12.13;;
4895;SDS011;2463;49.948;8.472;2023-03-01T05:20:55;107.35;;;13.75;;
4895;SDS011;2463;49.948;8.472;2023-03-01T05:23:24;105.13;;;12.10;;
4895;SDS011;2463;49.948;8.472;2023-03-01T05:25:51;106.53;;;12.52;;
4895;SDS011;2463;49.948;8.472;2023-03-01T05:28:19;106.45;;;12.73;;
4895;SDS011;2463;49.948;8.472;2023-03-01T05:30:46;109.20;;;13.30;;
4895;SDS011;2463;49.948;8.472;2023-03-01T05:33:13;107.78;;;13.63;;
4895;SDS011;2463;49.948;8.472;2023-03-01T05:35:40;106.80;;;12.35;;
4895;SDS011;2463;49.948;8.472;2023-03-01T05:38:09;108.15;;;12.65;;
4895;SDS011;2463;49.948;8.472;2023-03-01T05:40:40;110.32;;;12.35;;
4895;SDS011;2463;49.948;8.472;2023-03-01T05:43:08;104.85;;;12.35;;
4895;SDS011;2463;49.948;8.472;2023-03-01T05:45:36;109.25;;;12.05;;
4895;SDS011;2463;49.948;8.472;2023-03-01T05:48:04;110.18;;;13.70;;
4895;SDS011;2463;49.948;8.472;2023-03-01T05:50:32;110.90;;;12.27;;
4895;SDS011;2463;49.948;8.472;2023-03-01T05:53:06;106.93;;;13.32;;
4895;SDS011;2463;49.948;8.472;2023-03-01T05:55:45;105.07;;;11.93;;
4895;SDS011;2463;49.948;8.472;2023-03-01T05:58:14;107.30;;;13.02;;
4895;SDS011;2463;49.948;8.472;2023-03-01T06:00:42;106.15;;;12.93;;
4895;SDS011;2463;49.948;8.472;2023-03-01T06:03:11;108.53;;;13.02;;
4895;SDS011;2463;49.948;8.472;2023-03-01T06:05:39;108.28;;;13.65;;
4895;SDS011;2463;49.948;8.472;2023-03-01T06:08:06;106.07;;;12.70;;
4895;SDS011;2463;49.948;8.472;2023-03-01T06:10:33;106.00;;;13.23;;
4895;SDS011;2463;49.948;8.472;2023-03-01T06:13:00;108.68;;;13.32;;
4895;SDS011;2463;49.948;8.472;2023-03-01T06:15:26;107.95;;;12.23;;
4895;SDS011;2463;49.948;8.472;2023-03-01T06:17:54;114.20;;;14.60;;
4895;SDS011;2463;49.948;8.472;2023-03-01T06:20:26;106.13;;;12.82;;
4895;SDS011;2463;49.948;8.472;2023-03-01T06:22:54;108.53;;;13.57;;
4895;SDS011;2463;49.948;8.472;2023-03-01T06:25:22;107.03;;;12.90;;
4895;SDS011;2463;49.948;8.472;2023-03-01T06:27:49;110.97;;;13.27;;
4895;SDS011;2463;49.948;8.472;2023-03-01T06:30:17;114.72;;;13.15;;
4895;SDS011;2463;49.948;8.472;2023-03-01T06:32:44;106.65;;;12.60;;
4895;SDS011;2463;49.948;8.472;2023-03-01T06:35:12;107.90;;;12.90;;
4895;SDS011;2463;49.948;8.472;2023-03-01T06:37:40;109.65;;;13.00;;
4895;SDS011;2463;49.948;8.472;2023-03-01T06:40:07;107.38;;;13.13;;
4895;SDS011;2463;49.948;8.472;2023-03-01T06:42:35;107.60;;;12.65;;
4895;SDS011;2463;49.948;8.472;2023-03-01T06:45:02;112.93;;;12.38;;
4895;SDS011;2463;49.948;8.472;2023-03-01T06:47:30;112.80;;;13.88;;
4895;SDS011;2463;49.948;8.472;2023-03-01T06:49:57;110.63;;;15.07;;
4895;SDS011;2463;49.948;8.472;2023-03-01T06:52:24;105.57;;;12.43;;
4895;SDS011;2463;49.948;8.472;2023-03-01T06:54:50;108.60;;;13.40;;
4895;SDS011;2463;49.948;8.472;2023-03-01T06:57:17;109.70;;;14.35;;
4895;SDS011;2463;49.948;8.472;2023-03-01T06:59:43;105.90;;;11.77;;
4895;SDS011;2463;49.948;8.472;2023-03-01T07:02:10;107.70;;;14.00;;
4895;SDS011;2463;49.948;8.472;2023-03-01T07:04:38;103.43;;;12.07;;
4895;SDS011;2463;49.948;8.472;2023-03-01T07:07:05;105.18;;;13.02;;
4895;SDS011;2463;49.948;8.472;2023-03-01T07:09:32;111.38;;;13.43;;
4895;SDS011;2463;49.948;8.472;2023-03-01T07:11:58;109.75;;;14.98;;
4895;SDS011;2463;49.948;8.472;2023-03-01T07:14:25;106.20;;;12.52;;
4895;SDS011;2463;49.948;8.472;2023-03-01T07:16:53;106.75;;;12.23;;
4895;SDS011;2463;49.948;8.472;2023-03-01T07:19:20;109.35;;;12.43;;
4895;SDS011;2463;49.948;8.472;2023-03-01T07:21:47;105.13;;;12.52;;
4895;SDS011;2463;49.948;8.472;2023-03-01T07:24:14;106.80;;;12.32;;
4895;SDS011;2463;49.948;8.472;2023-03-01T07:26:41;106.43;;;12.30;;
4895;SDS011;2463;49.948;8.472;2023-03-01T07:29:09;111.22;;;13.38;;
4895;SDS011;2463;49.948;8.472;2023-03-01T07:31:36;106.18;;;13.15;;
4895;SDS011;2463;49.948;8.472;2023-03-01T07:34:03;109.95;;;13.07;;
4895;SDS011;2463;49.948;8.472;2023-03-01T07:36:29;106.05;;;13.25;;
4895;SDS011;2463;49.948;8.472;2023-03-01T07:38:56;108.95;;;12.90;;
4895;SDS011;2463;49.948;8.472;2023-03-01T07:41:23;114.28;;;14.02;;
4895;SDS011;2463;49.948;8.472;2023-03-01T07:43:50;109.13;;;12.80;;
4895;SDS011;2463;49.948;8.472;2023-03-01T07:46:17;107.13;;;12.95;;
4895;SDS011;2463;49.948;8.472;2023-03-01T07:48:45;107.60;;;13.20;;
4895;SDS011;2463;49.948;8.472;2023-03-01T07:51:12;107.35;;;13.85;;
4895;SDS011;2463;49.948;8.472;2023-03-01T07:53:39;108.65;;;13.07;;
4895;SDS011;2463;49.948;8.472;2023-03-01T07:56:07;107.60;;;13.38;;
4895;SDS011;2463;49.948;8.472;2023-03-01T07:58:35;110.43;;;13.60;;
4895;SDS011;2463;49.948;8.472;2023-03-01T08:01:08;112.05;;;14.07;;
4895;SDS011;2463;49.948;8.472;2023-03-01T08:03:37;105.63;;;13.18;;
4895;SDS011;2463;49.948;8.472;2023-03-01T08:06:04;104.43;;;12.95;;
4895;SDS011;2463;49.948;8.472;2023-03-01T08:08:33;105.57;;;12.63;;
4895;SDS011;2463;49.948;8.472;2023-03-01T08:11:01;105.47;;;13.45;;
4895;SDS011;2463;49.948;8.472;2023-03-01T08:13:28;108.68;;;13.52;;
4895;SDS011;2463;49.948;8.472;2023-03-01T08:16:02;104.97;;;13.27;;
4895;SDS011;2463;49.948;8.472;2023-03-01T08:18:34;108.00;;;12.70;;
4895;SDS011;2463;49.948;8.472;2023-03-01T08:21:04;105.47;;;13.25;;
4895;SDS011;2463;49.948;8.472;2023-03-01T08:23:32;105.38;;;12.43;;
4895;SDS011;2463;49.948;8.472;2023-03-01T08:26:04;103.78;;;11.48;;
4895;SDS011;2463;49.948;8.472;2023-03-01T08:28:35;108.57;;;14.45;;
4895;SDS011;2463;49.948;8.472;2023-03-01T08:31:02;107.13;;;12.25;;
4895;SDS011;2463;49.948;8.472;2023-03-01T08:33:29;105.68;;;13.52;;
4895;SDS011;2463;49.948;8.472;2023-03-01T08:36:03;104.93;;;13.05;;
4895;SDS011;2463;49.948;8.472;2023-03-01T08:38:30;106.45;;;13.60;;
4895;SDS011;2463;49.948;8.472;2023-03-01T08:40:59;102.53;;;13.57;;
4895;SDS011;2463;49.948;8.472;2023-03-01T08:43:29;102.35;;;12.00;;
4895;SDS011;2463;49.948;8.472;2023-03-01T08:45:55;102.47;;;13.38;;
4895;SDS011;2463;49.948;8.472;2023-03-01T08:48:22;103.78;;;14.63;;
4895;SDS011;2463;49.948;8.472;2023-03-01T08:50:49;104.97;;;13.77;;
4895;SDS011;2463;49.948;8.472;2023-03-01T08:53:16;102.63;;;13.38;;
4895;SDS011;2463;49.948;8.472;2023-03-01T08:55:42;102.43;;;14.75;;
4895;SDS011;2463;49.948;8.472;2023-03-01T08:58:09;101.25;;;13.10;;
4895;SDS011;2463;49.948;8.472;2023-03-01T09:00:36;98.22;;;12.20;;
4895;SDS011;2463;49.948;8.472;2023-03-01T09:03:03;99.10;;;12.02;;
4895;SDS011;2463;49.948;8.472;2023-03-01T09:05:33;100.85;;;13.77;;
4895;SDS011;2463;49.948;8.472;2023-03-01T09:08:00;98.28;;;13.07;;
4895;SDS011;2463;49.948;8.472;2023-03-01T09:10:27;99.72;;;13.20;;
4895;SDS011;2463;49.948;8.472;2023-03-01T09:12:54;102.37;;;13.77;;
4895;SDS011;2463;49.948;8.472;2023-03-01T09:15:20;98.47;;;13.47;;
4895;SDS011;2463;49.948;8.472;2023-03-01T09:17:47;99.53;;;13.07;;
4895;SDS011;2463;49.948;8.472;2023-03-01T09:20:13;100.45;;;12.65;;
4895;SDS011;2463;49.948;8.472;2023-03-01T09:22:40;101.87;;;13.43;;
4895;SDS011;2463;49.948;8.472;2023-03-01T09:25:07;96.53;;;13.07;;
4895;SDS011;2463;49.948;8.472;2023-03-01T09:27:33;100.07;;;13.57;;
4895;SDS011;2463;49.948;8.472;2023-03-01T09:30:00;100.80;;;12.60;;
4895;SDS011;2463;49.948;8.472;2023-03-01T09:32:29;97.27;;;13.30;;
4895;SDS011;2463;49.948;8.472;2023-03-01T09:34:57;98.63;;;12.83;;
4895;SDS011;2463;49.948;8.472;2023-03-01T09:37:33;96.17;;;12.20;;
4895;SDS011;2463;49.948;8.472;2023-03-01T09:40:01;98.27;;;13.83;;
4895;SDS011;2463;49.948;8.472;2023-03-01T09:42:30;98.17;;;13.30;;
4895;SDS011;2463;49.948;8.472;2023-03-01T09:47:37;96.37;;;12.93;;
4895;SDS011;2463;49.948;8.472;2023-03-01T09:50:05;96.10;;;12.67;;
4895;SDS011;2463;49.948;8.472;2023-03-01T09:55:34;98.07;;;12.67;;
4895;SDS011;2463;49.948;8.472;2023-03-01T10:00:51;93.60;;;11.73;;
4895;SDS011;2463;49.948;8.472;2023-03-01T10:04:02;95.60;;;13.00;;
4895;SDS011;2463;49.948;8.472;2023-03-01T10:06:14;96.33;;;12.63;;
4895;SDS011;2463;49.948;8.472;2023-03-01T10:09:00;96.20;;;12.10;;
4895;SDS011;2463;49.948;8.472;2023-03-01T10:11:37;93.17;;;11.50;;
4895;SDS011;2463;49.948;8.472;2023-03-01T10:19:50;94.07;;;12.37;;
4895;SDS011;2463;49.948;8.472;2023-03-01T10:22:21;93.87;;;11.70;;
4895;SDS011;2463;49.948;8.472;2023-03-01T10:24:56;90.30;;;11.37;;
4895;SDS011;2463;49.948;8.472;2023-03-01T10:27:26;92.97;;;12.30;;
4895;SDS011;2463;49.948;8.472;2023-03-01T10:32:37;92.60;;;12.77;;
4895;SDS011;2463;49.948;8.472;2023-03-01T10:35:18;92.67;;;11.67;;
4895;SDS011;2463;49.948;8.472;2023-03-01T10:37:57;94.93;;;12.83;;
4895;SDS011;2463;49.948;8.472;2023-03-01T10:40:28;93.80;;;13.00;;
4895;SDS011;2463;49.948;8.472;2023-03-01T10:42:57;96.17;;;12.20;;
4895;SDS011;2463;49.948;8.472;2023-03-01T10:50:33;92.17;;;11.90;;
4895;SDS011;2463;49.948;8.472;2023-03-01T10:53:02;95.00;;;11.90;;
4895;SDS011;2463;49.948;8.472;2023-03-01T10:55:31;93.67;;;13.27;;
4895;SDS011;2463;49.948;8.472;2023-03-01T10:58:19;95.50;;;13.20;;
4895;SDS011;2463;49.948;8.472;2023-03-01T11:03:41;93.93;;;12.67;;
4895;SDS011;2463;49.948;8.472;2023-03-01T11:08:44;93.97;;;12.77;;
4895;SDS011;2463;49.948;8.472;2023-03-01T11:11:21;96.37;;;13.13;;
4895;SDS011;2463;49.948;8.472;2023-03-01T11:14:00;97.90;;;12.43;;
4895;SDS011;2463;49.948;8.472;2023-03-01T11:16:59;93.17;;;12.60;;
4895;SDS011;2463;49.948;8.472;2023-03-01T11:19:38;91.87;;;11.57;;
4895;SDS011;2463;49.948;8.472;2023-03-01T11:22:12;93.70;;;12.40;;
4895;SDS011;2463;49.948;8.472;2023-03-01T11:24:48;91.93;;;11.90;;
4895;SDS011;2463;49.948;8.472;2023-03-01T11:27:36;92.77;;;12.67;;
4895;SDS011;2463;49.948;8.472;2023-03-01T11:30:23;91.30;;;11.60;;
4895;SDS011;2463;49.948;8.472;2023-03-01T11:32:57;92.20;;;11.73;;
4895;SDS011;2463;49.948;8.472;2023-03-01T11:35:34;92.63;;;12.50;;
4895;SDS011;2463;49.948;8.472;2023-03-01T11:44:03;90.50;;;11.50;;
4895;SDS011;2463;49.948;8.472;2023-03-01T11:51:48;90.80;;;11.67;;
4895;SDS011;2463;49.948;8.472;2023-03-01T11:59:51;91.30;;;11.37;;
4895;SDS011;2463;49.948;8.472;2023-03-01T12:17:24;90.60;;;11.37;;
4895;SDS011;2463;49.948;8.472;2023-03-01T12:22:52;92.37;;;11.30;;
4895;SDS011;2463;49.948;8.472;2023-03-01T12:36:50;89.17;;;10.90;;
4895;SDS011;2463;49.948;8.472;2023-03-01T12:39:25;92.40;;;11.60;;
4895;SDS011;2463;49.948;8.472;2023-03-01T12:50:42;93.97;;;11.20;;
4895;SDS011;2463;49.948;8.472;2023-03-01T12:53:31;94.57;;;10.77;;
4895;SDS011;2463;49.948;8.472;2023-03-01T12:56:21;93.07;;;10.53;;
4895;SDS011;2463;49.948;8.472;2023-03-01T13:04:40;93.77;;;9.87;;
4895;SDS011;2463;49.948;8.472;2023-03-01T13:13:24;96.07;;;10.13;;
4895;SDS011;2463;49.948;8.472;2023-03-01T13:15:52;97.37;;;10.30;;
4895;SDS011;2463;49.948;8.472;2023-03-01T13:20:47;95.13;;;9.93;;
4895;SDS011;2463;49.948;8.472;2023-03-01T13:31:04;96.43;;;9.98;;
4895;SDS011;2463;49.948;8.472;2023-03-01T13:33:54;95.18;;;9.40;;
4895;SDS011;2463;49.948;8.472;2023-03-01T13:46:57;95.28;;;9.50;;
4895;SDS011;2463;49.948;8.472;2023-03-01T13:49:41;95.68;;;9.90;;
4895;SDS011;2463;49.948;8.472;2023-03-01T13:57:46;95.28;;;9.57;;
4895;SDS011;2463;49.948;8.472;2023-03-01T14:03:00;95.88;;;10.15;;
4895;SDS011;2463;49.948;8.472;2023-03-01T14:05:31;99.30;;;11.05;;
4895;SDS011;2463;49.948;8.472;2023-03-01T14:07:59;102.45;;;11.35;;
4895;SDS011;2463;49.948;8.472;2023-03-01T14:10:28;101.65;;;9.80;;
4895;SDS011;2463;49.948;8.472;2023-03-01T14:16:12;98.07;;;10.32;;
4895;SDS011;2463;49.948;8.472;2023-03-01T14:19:14;97.90;;;10.15;;
4895;SDS011;2463;49.948;8.472;2023-03-01T14:22:05;100.47;;;10.70;;
4895;SDS011;2463;49.948;8.472;2023-03-01T14:24:47;97.50;;;10.75;;
4895;SDS011;2463;49.948;8.472;2023-03-01T14:27:20;96.80;;;10.30;;
4895;SDS011;2463;49.948;8.472;2023-03-01T14:29:54;100.68;;;11.10;;
4895;SDS011;2463;49.948;8.472;2023-03-01T14:32:30;100.32;;;10.60;;
4895;SDS011;2463;49.948;8.472;2023-03-01T14:34:59;99.97;;;10.20;;
4895;SDS011;2463;49.948;8.472;2023-03-01T14:37:27;98.72;;;10.43;;
4895;SDS011;2463;49.948;8.472;2023-03-01T14:39:59;102.95;;;10.55;;
4895;SDS011;2463;49.948;8.472;2023-03-01T14:42:31;102.40;;;10.55;;
4895;SDS011;2463;49.948;8.472;2023-03-01T14:45:02;97.82;;;9.90;;
4895;SDS011;2463;49.948;8.472;2023-03-01T14:47:31;98.15;;;9.55;;
4895;SDS011;2463;49.948;8.472;2023-03-01T14:50:10;102.10;;;10.48;;
4895;SDS011;2463;49.948;8.472;2023-03-01T14:52:59;99.90;;;10.95;;
4895;SDS011;2463;49.948;8.472;2023-03-01T14:57:57;101.65;;;10.77;;
4895;SDS011;2463;49.948;8.472;2023-03-01T15:00:27;100.88;;;10.48;;
4895;SDS011;2463;49.948;8.472;2023-03-01T15:02:56;99.15;;;10.90;;
4895;SDS011;2463;49.948;8.472;2023-03-01T15:05:30;98.38;;;9.73;;
4895;SDS011;2463;49.948;8.472;2023-03-01T15:07:58;100.90;;;10.68;;
4895;SDS011;2463;49.948;8.472;2023-03-01T15:10:28;101.85;;;10.70;;
4895;SDS011;2463;49.948;8.472;2023-03-01T15:13:09;104.30;;;11.07;;
4895;SDS011;2463;49.948;8.472;2023-03-01T15:15:41;99.95;;;10.27;;
4895;SDS011;2463;49.948;8.472;2023-03-01T15:18:14;100.75;;;10.63;;
4895;SDS011;2463;49.948;8.472;2023-03-01T15:20:41;99.40;;;10.95;;
4895;SDS011;2463;49.948;8.472;2023-03-01T15:23:25;100.20;;;10.75;;
4895;SDS011;2463;49.948;8.472;2023-03-01T15:25:54;102.90;;;11.13;;
4895;SDS011;2463;49.948;8.472;2023-03-01T15:28:28;102.00;;;11.43;;
4895;SDS011;2463;49.948;8.472;2023-03-01T15:31:02;98.78;;;10.98;;
4895;SDS011;2463;49.948;8.472;2023-03-01T15:33:35;100.35;;;10.60;;
4895;SDS011;2463;49.948;8.472;2023-03-01T15:36:04;100.18;;;11.85;;
4895;SDS011;2463;49.948;8.472;2023-03-01T15:38:58;100.30;;;10.30;;
4895;SDS011;2463;49.948;8.472;2023-03-01T15:41:31;99.50;;;10.25;;
4895;SDS011;2463;49.948;8.472;2023-03-01T15:43:59;98.63;;;10.23;;
4895;SDS011;2463;49.948;8.472;2023-03-01T15:46:39;101.53;;;10.52;;
4895;SDS011;2463;49.948;8.472;2023-03-01T15:52:27;100.55;;;10.45;;
4895;SDS011;2463;49.948;8.472;2023-03-01T15:55:06;99.30;;;9.57;;
4895;SDS011;2463;49.948;8.472;2023-03-01T15:57:44;101.03;;;10.25;;
4895;SDS011;2463;49.948;8.472;2023-03-01T16:00:11;98.60;;;10.23;;
4895;SDS011;2463;49.948;8.472;2023-03-01T16:02:40;100.07;;;9.30;;
4895;SDS011;2463;49.948;8.472;2023-03-01T16:05:18;97.88;;;10.55;;
4895;SDS011;2463;49.948;8.472;2023-03-01T16:07:54;99.82;;;9.68;;
4895;SDS011;2463;49.948;8.472;2023-03-01T16:10:20;99.05;;;9.85;;
4895;SDS011;2463;49.948;8.472;2023-03-01T16:12:47;100.88;;;9.90;;
4895;SDS011;2463;49.948;8.472;2023-03-01T16:15:23;99.28;;;9.70;;
4895;SDS011;2463;49.948;8.472;2023-03-01T16:17:51;101.25;;;10.15;;
4895;SDS011;2463;49.948;8.472;2023-03-01T16:20:18;101.00;;;10.23;;
4895;SDS011;2463;49.948;8.472;2023-03-01T16:22:53;100.18;;;10.15;;
4895;SDS011;2463;49.948;8.472;2023-03-01T16:25:20;100.25;;;10.20;;
4895;SDS011;2463;49.948;8.472;2023-03-01T16:27:48;99.88;;;10.43;;
4895;SDS011;2463;49.948;8.472;2023-03-01T16:30:17;101.43;;;10.15;;
4895;SDS011;2463;49.948;8.472;2023-03-01T16:32:46;100.00;;;9.52;;
4895;SDS011;2463;49.948;8.472;2023-03-01T16:35:15;102.18;;;9.95;;
4895;SDS011;2463;49.948;8.472;2023-03-01T16:37:44;99.32;;;10.18;;
4895;SDS011;2463;49.948;8.472;2023-03-01T16:40:24;100.70;;;9.60;;
4895;SDS011;2463;49.948;8.472;2023-03-01T16:42:53;101.93;;;10.82;;
4895;SDS011;2463;49.948;8.472;2023-03-01T16:45:21;102.50;;;10.43;;
4895;SDS011;2463;49.948;8.472;2023-03-01T16:47:50;102.40;;;11.18;;
4895;SDS011;2463;49.948;8.472;2023-03-01T16:50:21;103.50;;;10.00;;
4895;SDS011;2463;49.948;8.472;2023-03-01T16:52:48;100.60;;;9.90;;
4895;SDS011;2463;49.948;8.472;2023-03-01T16:55:15;101.57;;;9.52;;
4895;SDS011;2463;49.948;8.472;2023-03-01T16:57:42;101.90;;;10.85;;
4895;SDS011;2463;49.948;8.472;2023-03-01T17:00:09;100.32;;;9.02;;
4895;SDS011;2463;49.948;8.472;2023-03-01T17:02:39;101.60;;;11.30;;
4895;SDS011;2463;49.948;8.472;2023-03-01T17:05:07;98.57;;;9.85;;
4895;SDS011;2463;49.948;8.472;2023-03-01T17:07:35;101.65;;;10.02;;
4895;SDS011;2463;49.948;8.472;2023-03-01T17:10:03;102.68;;;10.43;;
4895;SDS011;2463;49.948;8.472;2023-03-01T17:12:34;102.85;;;11.80;;
4895;SDS011;2463;49.948;8.472;2023-03-01T17:15:01;102.85;;;10.95;;
4895;SDS011;2463;49.948;8.472;2023-03-01T17:17:28;106.93;;;10.60;;
4895;SDS011;2463;49.948;8.472;2023-03-01T17:19:54;98.78;;;9.80;;
4895;SDS011;2463;49.948;8.472;2023-03-01T17:22:22;97.63;;;9.77;;